createdAt,value
2022-08-17T00:01:25.652Z,94916.88
2022-08-17T00:03:54.639Z,94914.09
2022-08-17T00:06:24.550Z,94907.78
2022-08-17T00:08:54.869Z,94914.50
2022-08-17T00:11:29.122Z,94912.13
2022-08-17T00:14:04.268Z,94914.84
2022-08-17T00:16:55.414Z,94904.63
2022-08-17T00:19:25.887Z,94916.44
2022-08-17T00:22:29.769Z,94914.88
2022-08-17T00:24:41.131Z,94908.56
2022-08-17T00:27:07.668Z,94915.66
2022-08-17T00:29:34.288Z,94911.72
2022-08-17T00:33:12.660Z,94905.38
2022-08-17T00:34:48.676Z,94905.38
2022-08-17T00:37:15.280Z,94901.06
2022-08-17T00:39:42.013Z,94899.50
2022-08-17T00:42:17.398Z,94901.44
2022-08-17T00:44:44.644Z,94893.56
2022-08-17T00:47:11.251Z,94889.63
2022-08-17T00:49:37.787Z,94885.72
2022-08-17T00:52:12.666Z,94880.97
2022-08-17T00:54:42.482Z,94881.78
2022-08-17T00:57:18.435Z,94876.66
2022-08-17T01:00:02.588Z,94883.75
2022-08-17T01:02:34.994Z,94881.38
2022-08-17T01:05:19.062Z,94878.63
2022-08-17T01:07:47.846Z,94869.59
2022-08-17T01:10:59.042Z,94863.69
2022-08-17T01:13:04.697Z,94864.06
2022-08-17T01:15:36.780Z,94864.44
2022-08-17T01:18:07.149Z,94869.56
2022-08-17T01:20:48.528Z,94871.53
2022-08-17T01:23:19.864Z,94867.63
2022-08-17T01:25:55.006Z,94859.34
2022-08-17T01:28:40.701Z,94862.09
2022-08-17T01:31:10.091Z,94860.13
2022-08-17T01:33:36.952Z,94866.81
2022-08-17T01:36:06.253Z,94873.09
2022-08-17T01:38:34.385Z,94857.34
2022-08-17T01:41:06.864Z,94871.53
2022-08-17T01:43:41.907Z,94877.03
2022-08-17T01:46:08.893Z,94864.47
2022-08-17T01:48:38.715Z,94868.38
2022-08-17T01:51:06.884Z,94876.66
2022-08-17T01:53:36.800Z,94883.34
2022-08-17T01:56:11.531Z,94888.47
2022-08-17T01:58:40.315Z,94884.16
2022-08-17T02:01:10.364Z,94889.25
2022-08-17T02:03:38.081Z,94888.06
2022-08-17T02:06:06.482Z,94886.91
2022-08-17T02:08:57.030Z,94877.47
2022-08-17T02:11:31.218Z,94877.06
2022-08-17T02:14:03.662Z,94869.19
2022-08-17T02:16:37.668Z,94859.72
2022-08-17T02:19:08.155Z,94856.56
2022-08-17T02:21:36.849Z,94860.53
2022-08-17T02:24:05.741Z,94856.97
2022-08-17T02:26:32.462Z,94864.44
2022-08-17T02:28:59.239Z,94858.56
2022-08-17T02:31:26.001Z,94853.44
2022-08-17T02:34:04.049Z,94860.13
2022-08-17T02:36:35.632Z,94858.16
2022-08-17T02:39:05.038Z,94858.53
2022-08-17T02:41:31.782Z,94858.94
2022-08-17T02:43:58.428Z,94855.78
2022-08-17T02:46:25.021Z,94844.00
2022-08-17T02:48:51.616Z,94842.41
2022-08-17T02:51:18.324Z,94840.81
2022-08-17T02:53:44.867Z,94833.75
2022-08-17T02:56:11.695Z,94831.41
2022-08-17T02:58:38.604Z,94834.94
2022-08-17T03:01:07.506Z,94838.84
2022-08-17T03:03:35.592Z,94830.59
2022-08-17T03:06:02.834Z,94829.03
2022-08-17T03:08:30.192Z,94828.25
2022-08-17T03:10:57.523Z,94829.03
2022-08-17T03:13:24.266Z,94825.50
2022-08-17T03:15:51.556Z,94830.59
2022-08-17T03:18:24.690Z,94828.25
2022-08-17T03:20:58.615Z,94825.50
2022-08-17T03:23:27.278Z,94832.56
2022-08-17T03:25:55.163Z,94827.84
2022-08-17T03:28:24.591Z,94822.31
2022-08-17T03:30:52.523Z,94827.44
2022-08-17T03:33:21.027Z,94823.50
2022-08-17T03:35:48.187Z,94819.56
2022-08-17T03:38:15.983Z,94824.69
2022-08-17T03:40:57.675Z,94827.47
2022-08-17T03:43:31.687Z,94831.00
2022-08-17T03:45:59.648Z,94842.00
2022-08-17T03:48:26.235Z,94850.66
2022-08-17T03:50:52.967Z,94854.59
2022-08-17T03:53:19.476Z,94857.34
2022-08-17T03:55:46.152Z,94860.09
2022-08-17T03:58:12.766Z,94856.56
2022-08-17T04:00:39.904Z,94865.59
2022-08-17T04:03:06.500Z,94857.34
2022-08-17T04:05:35.720Z,94860.88
2022-08-17T04:08:02.501Z,94856.56
2022-08-17T04:10:33.921Z,94854.97
2022-08-17T04:13:05.609Z,94861.66
2022-08-17T04:15:32.131Z,94870.72
2022-08-17T04:17:59.389Z,94871.50
2022-08-17T04:20:26.477Z,94869.13
2022-08-17T04:22:56.861Z,94866.38
2022-08-17T04:25:24.219Z,94866.78
2022-08-17T04:27:50.828Z,94866.78
2022-08-17T04:30:17.443Z,94860.47
2022-08-17T04:33:14.607Z,94868.75
2022-08-17T04:35:45.147Z,94869.56
2022-08-17T04:38:15.025Z,94874.66
2022-08-17T04:40:42.422Z,94867.59
2022-08-17T04:43:15.544Z,94870.75
2022-08-17T04:45:56.322Z,94868.38
2022-08-17T04:48:34.784Z,94866.81
2022-08-17T04:51:07.713Z,94872.31
2022-08-17T04:53:34.295Z,94866.41
2022-08-17T04:56:01.145Z,94866.81
2022-08-17T04:58:27.865Z,94868.78
2022-08-17T05:00:54.645Z,94861.69
2022-08-17T05:03:21.433Z,94867.59
2022-08-17T05:05:48.103Z,94870.34
2022-08-17T05:08:17.844Z,94862.88
2022-08-17T05:10:45.054Z,94869.19
2022-08-17T05:13:16.030Z,94858.16
2022-08-17T05:15:48.177Z,94857.38
2022-08-17T05:18:16.469Z,94863.69
2022-08-17T05:20:44.291Z,94858.16
2022-08-17T05:23:14.602Z,94858.53
2022-08-17T05:25:48.414Z,94859.75
2022-08-17T05:28:19.659Z,94855.81
2022-08-17T05:30:50.865Z,94854.19
2022-08-17T05:33:20.582Z,94856.97
2022-08-17T05:35:50.466Z,94858.13
2022-08-17T05:38:20.662Z,94862.06
2022-08-17T05:40:47.774Z,94864.00
2022-08-17T05:43:16.946Z,94860.41
2022-08-17T05:46:08.189Z,94862.00
2022-08-17T05:48:42.445Z,94845.00
2022-08-17T05:51:27.301Z,94846.13
2022-08-17T05:54:15.056Z,94842.97
2022-08-17T05:56:51.564Z,94850.03
2022-08-17T05:59:29.907Z,94846.41
2022-08-17T06:02:19.860Z,94855.06
2022-08-17T06:04:52.257Z,94851.06
2022-08-17T06:07:36.461Z,94852.97
2022-08-17T06:10:12.871Z,94852.53
2022-08-17T06:13:14.010Z,94852.09
2022-08-17T06:15:43.725Z,94843.38
2022-08-17T06:18:15.916Z,94847.28
2022-08-17T06:20:55.945Z,94855.50
2022-08-17T06:23:33.748Z,94862.56
2022-08-17T06:26:08.708Z,94867.63
2022-08-17T06:29:18.667Z,94877.00
2022-08-17T06:32:08.089Z,94872.16
2022-08-17T06:34:53.555Z,94885.91
2022-08-17T06:37:47.714Z,94885.44
2022-08-17T06:40:55.086Z,94883.00
2022-08-17T06:44:03.989Z,94892.81
2022-08-17T06:46:57.547Z,94895.09
2022-08-17T06:50:13.526Z,94893.81
2022-08-17T06:53:17.082Z,94896.47
2022-08-17T06:56:08.843Z,94902.66
2022-08-17T06:58:57.338Z,94901.38
2022-08-17T07:01:42.853Z,94902.84
2022-08-17T07:04:31.122Z,94905.56
2022-08-17T07:07:20.326Z,94918.50
2022-08-17T07:10:08.586Z,94914.81
2022-08-17T07:12:57.820Z,94914.72
2022-08-17T07:15:44.911Z,94921.75
2022-08-17T07:18:31.067Z,94929.94
2022-08-17T07:21:34.307Z,94928.66
2022-08-17T07:24:46.364Z,94931.34
2022-08-17T07:27:37.745Z,94939.53
2022-08-17T07:30:46.870Z,94925.59
2022-08-17T07:33:35.296Z,94930.66
2022-08-17T07:36:29.847Z,94926.22
2022-08-17T07:39:26.931Z,94930.88
2022-08-17T07:42:12.542Z,94941.06
2022-08-17T07:44:58.229Z,94936.25
2022-08-17T07:47:50.810Z,94939.34
2022-08-17T07:50:36.410Z,94938.78
2022-08-17T07:53:25.915Z,94930.41
2022-08-17T07:56:34.329Z,94930.28
2022-08-17T07:59:43.226Z,94938.88
2022-08-17T08:02:33.883Z,94943.88
2022-08-17T08:05:25.073Z,94947.25
2022-08-17T08:08:37.288Z,94935.22
2022-08-17T08:11:30.452Z,94942.16
2022-08-17T08:14:29.526Z,94946.28
2022-08-17T08:17:24.276Z,94948.88
2022-08-17T08:20:34.901Z,94945.53
2022-08-17T08:23:29.889Z,94950.19
2022-08-17T08:26:41.953Z,94935.28
2022-08-17T08:29:45.076Z,94931.50
2022-08-17T08:32:46.129Z,94930.97
2022-08-17T08:35:46.402Z,94935.25
2022-08-17T08:38:46.057Z,94942.66
2022-08-17T08:41:58.684Z,94928.22
2022-08-17T08:45:00.296Z,94915.28
2022-08-17T08:48:07.188Z,94909.09
2022-08-17T08:51:32.454Z,94909.19
2022-08-17T08:54:59.813Z,94915.03
2022-08-17T08:58:08.140Z,94921.38
2022-08-17T09:01:24.572Z,94926.06
2022-08-17T09:05:10.536Z,94916.75
2022-08-17T09:08:08.940Z,94905.75
2022-08-17T09:11:03.757Z,94904.31
2022-08-17T09:13:58.981Z,94898.19
2022-08-17T09:17:09.160Z,94912.63
2022-08-17T09:20:27.532Z,94914.88
2022-08-17T09:23:28.767Z,94917.03
2022-08-17T09:26:25.706Z,94910.97
2022-08-17T09:29:14.179Z,94912.28
2022-08-17T09:32:02.700Z,94910.41
2022-08-17T09:34:59.263Z,94903.28
2022-08-17T09:38:02.475Z,94903.19
2022-08-17T09:41:12.391Z,94906.44
2022-08-17T09:44:24.028Z,94916.59
2022-08-17T09:47:25.985Z,94912.69
2022-08-17T09:50:18.909Z,94918.75
2022-08-17T09:53:24.245Z,94914.72
2022-08-17T09:56:34.606Z,94902.34
2022-08-17T09:59:45.026Z,94904.44
2022-08-17T10:02:49.172Z,94895.38
2022-08-17T10:05:44.529Z,94902.88
2022-08-17T10:08:38.356Z,94897.69
2022-08-17T10:11:35.863Z,94897.34
2022-08-17T10:14:44.042Z,94909.50
2022-08-17T10:17:48.142Z,94912.03
2022-08-17T10:20:49.512Z,94901.72
2022-08-17T10:23:34.938Z,94906.50
2022-08-17T10:26:26.587Z,94892.91
2022-08-17T10:29:18.762Z,94886.47
2022-08-17T10:32:10.663Z,94881.72
2022-08-17T10:35:03.291Z,94880.84
2022-08-17T10:38:06.812Z,94881.03
2022-08-17T10:41:06.808Z,94884.38
2022-08-17T10:44:40.078Z,94881.91
2022-08-17T10:47:58.100Z,94877.16
2022-08-17T10:50:45.478Z,94876.25
2022-08-17T10:53:33.445Z,94879.41
2022-08-17T10:56:22.702Z,94878.38
2022-08-17T10:59:08.726Z,94897.41
2022-08-17T11:02:22.849Z,94889.81
2022-08-17T11:05:14.109Z,94884.66
2022-08-17T11:08:34.594Z,94892.16
2022-08-17T11:11:38.364Z,94890.03
2022-08-17T11:14:54.772Z,94883.81
2022-08-17T11:18:01.447Z,94878.81
2022-08-17T11:21:13.542Z,94879.56
2022-08-17T11:24:05.118Z,94883.16
2022-08-17T11:27:23.507Z,94878.81
2022-08-17T11:30:33.869Z,94881.75
2022-08-17T11:33:42.538Z,94881.75
2022-08-17T11:36:30.509Z,94871.28
2022-08-17T11:39:21.585Z,94876.91
2022-08-17T11:42:46.262Z,94877.06
2022-08-17T11:46:10.506Z,94888.56
2022-08-17T11:49:10.524Z,94873.94
2022-08-17T11:52:01.818Z,94871.22
2022-08-17T11:54:48.445Z,94869.19
2022-08-17T11:57:33.582Z,94863.25
2022-08-17T12:00:40.728Z,94871.47
2022-08-17T12:03:31.935Z,94890.41
2022-08-17T12:06:34.566Z,94896.28
2022-08-17T12:09:24.071Z,94887.97
2022-08-17T12:12:14.734Z,94891.69
2022-08-17T12:15:16.727Z,94889.63
2022-08-17T12:18:01.864Z,94888.50
2022-08-17T12:21:02.427Z,94886.00
2022-08-17T12:24:23.462Z,94886.47
2022-08-17T12:27:11.504Z,94898.28
2022-08-17T12:30:00.130Z,94890.94
2022-08-17T12:32:46.233Z,94895.94
2022-08-17T12:35:35.101Z,94883.63
2022-08-17T12:38:26.654Z,94880.00
2022-08-17T12:41:40.802Z,94878.34
2022-08-17T12:44:32.548Z,94874.75
2022-08-17T12:47:22.603Z,94875.34
2022-08-17T12:50:29.764Z,94880.94
2022-08-17T12:53:20.027Z,94872.34
2022-08-17T12:56:11.373Z,94868.56
2022-08-17T12:58:56.845Z,94857.69
2022-08-17T13:01:42.222Z,94867.78
2022-08-17T13:04:29.629Z,94857.75
2022-08-17T13:07:27.143Z,94859.56
2022-08-17T13:10:18.501Z,94855.31
2022-08-17T13:13:19.510Z,94852.84
2022-08-17T13:16:12.738Z,94851.72
2022-08-17T13:19:12.862Z,94854.75
2022-08-17T13:22:01.065Z,94846.88
2022-08-17T13:24:53.966Z,94849.25
2022-08-17T13:27:42.794Z,94849.56
2022-08-17T13:30:30.801Z,94850.13
2022-08-17T13:33:43.434Z,94851.50
2022-08-17T13:36:30.449Z,94850.34
2022-08-17T13:39:20.729Z,94841.72
2022-08-17T13:42:52.356Z,94852.31
2022-08-17T13:45:50.681Z,94855.03
2022-08-17T13:48:36.541Z,94849.88
2022-08-17T13:51:28.933Z,94852.16
2022-08-17T13:54:25.869Z,94839.53
2022-08-17T13:57:21.175Z,94846.59
2022-08-17T14:00:16.944Z,94841.06
2022-08-17T14:03:03.959Z,94832.28
2022-08-17T14:05:50.802Z,94831.66
2022-08-17T14:08:37.035Z,94839.13
2022-08-17T14:11:23.344Z,94829.28
2022-08-17T14:14:09.005Z,94821.47
2022-08-17T14:16:54.408Z,94824.78
2022-08-17T14:19:39.919Z,94814.97
2022-08-17T14:22:34.068Z,94808.09
2022-08-17T14:25:28.051Z,94809.22
2022-08-17T14:28:13.304Z,94802.47
2022-08-17T14:30:58.371Z,94804.19
2022-08-17T14:33:43.895Z,94794.25
2022-08-17T14:36:29.424Z,94788.31
2022-08-17T14:39:15.980Z,94784.47
2022-08-17T14:42:01.298Z,94778.25
2022-08-17T14:44:46.122Z,94777.03
2022-08-17T14:47:36.070Z,94772.91
2022-08-17T14:50:21.481Z,94767.41
2022-08-17T14:53:10.045Z,94763.47
2022-08-17T14:55:55.370Z,94759.22
2022-08-17T14:58:40.695Z,94770.91
2022-08-17T15:01:26.986Z,94773.56
2022-08-17T15:04:12.214Z,94769.88
2022-08-17T15:06:57.631Z,94769.47
2022-08-17T15:09:43.575Z,94770.28
2022-08-17T15:12:33.790Z,94764.13
2022-08-17T15:15:20.420Z,94769.44
2022-08-17T15:18:05.824Z,94771.63
2022-08-17T15:20:51.468Z,94774.16
2022-08-17T15:23:38.390Z,94777.06
2022-08-17T15:26:26.362Z,94770.94
2022-08-17T15:29:11.901Z,94779.94
2022-08-17T15:32:00.571Z,94785.78
2022-08-17T15:34:45.765Z,94790.56
2022-08-17T15:37:31.305Z,94774.69
2022-08-17T15:40:16.518Z,94785.50
2022-08-17T15:43:10.070Z,94790.88
2022-08-17T15:45:59.874Z,94802.59
2022-08-17T15:48:52.131Z,94807.34
2022-08-17T15:51:37.700Z,94798.22
2022-08-17T15:54:23.474Z,94794.00
2022-08-17T15:57:08.760Z,94784.88
2022-08-17T15:59:58.623Z,94788.56
2022-08-17T16:03:44.679Z,94795.38
2022-08-17T16:05:49.904Z,94798.97
2022-08-17T16:08:37.366Z,94804.97
2022-08-17T16:11:23.645Z,94804.72
2022-08-17T16:14:09.103Z,94799.69
2022-08-17T16:16:59.186Z,94804.19
2022-08-17T16:19:44.977Z,94797.22
2022-08-17T16:22:33.805Z,94797.91
2022-08-17T16:25:52.078Z,94797.06
2022-08-17T16:28:36.382Z,94798.81
2022-08-17T16:31:22.913Z,94792.03
2022-08-17T16:34:16.699Z,94783.69
2022-08-17T16:37:03.673Z,94780.22
2022-08-17T16:39:49.145Z,94779.03
2022-08-17T16:42:37.655Z,94782.47
2022-08-17T16:45:26.470Z,94775.63
2022-08-17T16:48:12.920Z,94763.53
2022-08-17T16:51:02.014Z,94767.97
2022-08-17T16:53:57.805Z,94759.19
2022-08-17T16:56:45.021Z,94770.53
2022-08-17T16:59:40.857Z,94769.72
2022-08-17T17:02:35.445Z,94770.69
2022-08-17T17:05:48.517Z,94770.13
2022-08-17T17:08:49.444Z,94774.88
2022-08-17T17:11:50.842Z,94764.97
2022-08-17T17:14:41.721Z,94760.38
2022-08-17T17:17:26.949Z,94763.47
2022-08-17T17:20:25.853Z,94759.63
2022-08-17T17:23:34.630Z,94747.84
2022-08-17T17:26:44.589Z,94761.84
2022-08-17T17:29:47.331Z,94753.78
2022-08-17T17:32:54.274Z,94752.28
2022-08-17T17:35:56.639Z,94750.59
2022-08-17T17:38:49.846Z,94748.44
2022-08-17T17:41:50.602Z,94757.69
2022-08-17T17:44:42.263Z,94753.97
2022-08-17T17:47:29.156Z,94745.88
2022-08-17T17:50:18.075Z,94757.00
2022-08-17T17:53:19.050Z,94743.00
2022-08-17T17:56:44.090Z,94752.69
2022-08-17T17:59:59.050Z,94744.78
2022-08-17T18:03:13.375Z,94752.59
2022-08-17T18:06:15.040Z,94752.03
2022-08-17T18:09:03.264Z,94745.66
2022-08-17T18:12:05.070Z,94739.75
2022-08-17T18:15:06.358Z,94724.34
2022-08-17T18:18:16.469Z,94726.69
2022-08-17T18:21:06.122Z,94721.25
2022-08-17T18:23:59.117Z,94723.91
2022-08-17T18:26:55.435Z,94728.06
2022-08-17T18:29:44.816Z,94732.22
2022-08-17T18:32:40.009Z,94738.41
2022-08-17T18:35:30.555Z,94726.59
2022-08-17T18:38:36.973Z,94726.78
2022-08-17T18:41:25.297Z,94725.69
2022-08-17T18:44:30.157Z,94743.03
2022-08-17T18:47:25.382Z,94746.69
2022-08-17T18:50:27.379Z,94745.19
2022-08-17T18:53:18.691Z,94726.50
2022-08-17T18:56:23.175Z,94725.78
2022-08-17T18:59:27.849Z,94734.53
2022-08-17T19:02:19.755Z,94727.03
2022-08-17T19:05:25.861Z,94721.47
2022-08-17T19:08:29.631Z,94723.53
2022-08-17T19:11:27.122Z,94716.78
2022-08-17T19:14:14.494Z,94729.53
2022-08-17T19:17:11.378Z,94731.91
2022-08-17T19:20:02.694Z,94721.88
2022-08-17T19:23:14.285Z,94733.81
2022-08-17T19:26:00.392Z,94735.63
2022-08-17T19:28:55.956Z,94753.47
2022-08-17T19:31:41.257Z,94758.94
2022-08-17T19:34:34.646Z,94769.09
2022-08-17T19:38:12.857Z,94776.66
2022-08-17T19:41:05.933Z,94784.31
2022-08-17T19:44:15.867Z,94788.56
2022-08-17T19:47:53.159Z,94793.44
2022-08-17T19:50:49.100Z,94792.78
2022-08-17T19:54:04.750Z,94786.84
2022-08-17T19:57:09.133Z,94777.81
2022-08-17T20:00:02.833Z,94779.03
2022-08-17T20:02:54.298Z,94781.06
2022-08-17T20:06:12.102Z,94772.78
2022-08-17T20:09:14.762Z,94760.53
2022-08-17T20:12:14.170Z,94768.56
2022-08-17T20:15:10.943Z,94767.00
2022-08-17T20:17:59.895Z,94773.44
2022-08-17T20:21:20.003Z,94777.09
2022-08-17T20:24:35.879Z,94771.22
2022-08-17T20:27:29.540Z,94779.56
2022-08-17T20:30:23.395Z,94778.44
2022-08-17T20:33:22.429Z,94768.16
2022-08-17T20:36:16.411Z,94773.75
2022-08-17T20:39:01.907Z,94763.84
2022-08-17T20:42:22.375Z,94754.03
2022-08-17T20:45:22.543Z,94747.66
2022-08-17T20:48:36.761Z,94746.06
2022-08-17T20:51:33.652Z,94749.31
2022-08-17T20:54:18.595Z,94733.81
2022-08-17T20:57:09.171Z,94733.81
2022-08-17T21:00:08.512Z,94727.47
2022-08-17T21:03:19.622Z,94725.56
2022-08-17T21:06:04.786Z,94719.09
2022-08-17T21:09:29.141Z,94730.34
2022-08-17T21:12:45.846Z,94731.47
2022-08-17T21:15:42.349Z,94730.25
2022-08-17T21:18:47.217Z,94731.03
2022-08-17T21:21:52.199Z,94726.59
2022-08-17T21:24:58.476Z,94723.00
2022-08-17T21:27:59.626Z,94714.66
2022-08-17T21:30:50.497Z,94722.16
2022-08-17T21:33:38.556Z,94716.56
2022-08-17T21:36:25.742Z,94715.38
2022-08-17T21:39:16.515Z,94710.56
2022-08-17T21:42:07.175Z,94716.81
2022-08-17T21:44:57.597Z,94719.94
2022-08-17T21:47:49.070Z,94716.28
2022-08-17T21:50:34.909Z,94716.16
2022-08-17T21:53:34.580Z,94715.28
2022-08-17T21:56:42.197Z,94704.03
2022-08-17T21:59:34.084Z,94707.16
2022-08-17T22:02:33.966Z,94700.69
2022-08-17T22:05:32.805Z,94705.03
2022-08-17T22:08:21.146Z,94711.72
2022-08-17T22:11:06.661Z,94716.09
2022-08-17T22:13:52.178Z,94714.06
2022-08-17T22:16:46.312Z,94712.06
2022-08-17T22:19:32.664Z,94715.66
2022-08-17T22:22:29.320Z,94724.00
2022-08-17T22:25:21.454Z,94719.66
2022-08-17T22:28:10.138Z,94728.78
2022-08-17T22:31:02.362Z,94736.03
2022-08-17T22:33:49.490Z,94742.81
2022-08-17T22:36:39.620Z,94750.50
2022-08-17T22:39:24.995Z,94750.59
2022-08-17T22:42:14.973Z,94763.06
2022-08-17T22:45:00.547Z,94768.06
2022-08-17T22:47:45.858Z,94780.19
2022-08-17T22:50:31.947Z,94794.75
2022-08-17T22:53:21.458Z,94833.22
2022-08-17T22:56:14.746Z,94846.22
2022-08-17T22:59:00.074Z,94875.19
2022-08-17T23:02:17.146Z,94890.94
2022-08-17T23:05:11.159Z,94871.59
2022-08-17T23:07:56.746Z,94866.03
2022-08-17T23:10:42.684Z,94878.53
2022-08-17T23:13:28.567Z,94885.13
2022-08-17T23:16:13.851Z,94893.63
2022-08-17T23:18:59.264Z,94896.91
2022-08-17T23:21:45.139Z,94918.97
2022-08-17T23:24:33.509Z,94945.47
2022-08-17T23:27:19.947Z,94954.44
2022-08-17T23:30:05.719Z,94955.56
2022-08-17T23:32:53.639Z,94961.03
2022-08-17T23:35:41.016Z,94963.31
2022-08-17T23:38:26.837Z,94959.97
2022-08-17T23:41:20.132Z,94963.91
2022-08-17T23:44:06.462Z,94984.75
2022-08-17T23:46:52.426Z,94993.28
2022-08-17T23:49:37.767Z,95009.28
2022-08-17T23:52:22.992Z,95002.38
2022-08-17T23:55:08.723Z,95004.53
2022-08-17T23:57:54.175Z,95016.59
